Time;durP1;ratioP1;P1;durP2;ratioP2;P2;SDS_P1;SDS_P2;PMS_P1;PMS_P2;Temp;Humidity;BMP_temperature;BMP_pressure;BME280_temperature;BME280_humidity;BME280_pressure;Samples;Min_cycle;Max_cycle;Signal;HPM_P1;HPM_P2
2021/07/21 04:02:36;;;;;;;8.83;7.93;;;17.80;99.90;;;;;;5052925;23;20515;-72
2021/07/21 04:05:04;;;;;;;10.77;8.33;;;17.80;99.90;;;;;;5001320;28;20973;-72
2021/07/21 04:07:33;;;;;;;10.30;8.20;;;17.80;99.90;;;;;;5000845;28;20470;-71
2021/07/21 04:10:00;;;;;;;8.63;7.80;;;17.80;99.90;;;;;;4996915;28;20518;-71
2021/07/21 04:12:29;;;;;;;8.97;8.07;;;17.80;99.90;;;;;;4977552;28;20547;-70
2021/07/21 04:14:57;;;;;;;9.50;7.97;;;17.80;99.90;;;;;;4973419;28;20487;-70
2021/07/21 04:17:24;;;;;;;11.37;8.17;;;17.80;99.90;;;;;;4978297;28;20476;-71
2021/07/21 04:19:53;;;;;;;11.40;8.20;;;17.80;99.90;;;;;;4981727;28;20463;-72
2021/07/21 04:22:22;;;;;;;12.20;8.67;;;17.80;99.90;;;;;;4998564;28;20483;-70
2021/07/21 04:24:49;;;;;;;9.83;8.30;;;17.80;99.90;;;;;;4999162;28;20794;-72
2021/07/21 04:27:16;;;;;;;9.53;8.57;;;17.80;99.90;;;;;;4980267;28;20931;-72
2021/07/21 04:29:46;;;;;;;8.93;7.70;;;17.80;99.90;;;;;;4979014;28;20472;-71
2021/07/21 04:32:13;;;;;;;11.07;8.40;;;17.80;99.90;;;;;;4979146;28;20487;-72
2021/07/21 04:34:40;;;;;;;8.80;7.90;;;17.80;99.90;;;;;;4980061;28;20482;-72
2021/07/21 04:37:09;;;;;;;10.70;8.70;;;17.90;99.90;;;;;;4997111;28;20479;-72
2021/07/21 04:39:36;;;;;;;10.73;8.70;;;17.80;99.90;;;;;;4980913;28;20475;-72
2021/07/21 04:42:04;;;;;;;8.17;7.47;;;17.80;99.90;;;;;;4995056;28;20993;-73
2021/07/21 04:44:31;;;;;;;9.43;8.53;;;17.80;99.90;;;;;;4992975;28;20947;-71
2021/07/21 04:47:00;;;;;;;8.57;7.60;;;17.90;99.90;;;;;;4993301;28;20467;-70
2021/07/21 04:49:28;;;;;;;9.27;7.70;;;17.90;99.90;;;;;;4993391;28;20537;-71
2021/07/21 04:51:59;;;;;;;8.83;8.00;;;17.80;99.90;;;;;;4974303;28;20487;-70
2021/07/21 04:54:28;;;;;;;9.03;8.07;;;17.90;99.90;;;;;;4973216;28;20828;-71
2021/07/21 04:56:55;;;;;;;11.77;7.80;;;17.90;99.90;;;;;;4993808;28;21040;-72
2021/07/21 04:59:21;;;;;;;11.20;7.90;;;17.90;99.90;;;;;;4979026;28;20476;-72
2021/07/21 05:01:48;;;;;;;11.20;8.80;;;17.90;99.90;;;;;;4993976;28;20513;-74
2021/07/21 05:04:16;;;;;;;13.83;8.23;;;17.90;99.90;;;;;;4996173;28;20514;-73
2021/07/21 05:06:44;;;;;;;10.07;8.90;;;17.90;99.90;;;;;;4996847;28;20466;-72
2021/07/21 05:09:11;;;;;;;9.60;8.60;;;18.00;99.90;;;;;;4978432;28;20518;-69
2021/07/21 05:11:40;;;;;;;9.30;8.30;;;18.00;99.90;;;;;;4988454;28;20730;-71
2021/07/21 05:14:07;;;;;;;9.30;8.33;;;18.00;99.90;;;;;;4992575;28;20467;-71
2021/07/21 05:16:35;;;;;;;9.53;8.53;;;18.00;99.90;;;;;;4978762;28;20464;-71
2021/07/21 05:19:02;;;;;;;8.93;8.03;;;18.00;99.90;;;;;;4987968;28;20462;-72
2021/07/21 05:21:30;;;;;;;11.47;8.70;;;18.00;99.90;;;;;;4985794;28;20821;-73
2021/07/21 05:23:57;;;;;;;8.90;8.10;;;18.00;99.90;;;;;;4994663;28;20467;-72
2021/07/21 05:26:24;;;;;;;11.37;10.17;;;18.10;99.90;;;;;;4982110;28;20463;-73
2021/07/21 05:28:52;;;;;;;9.83;8.93;;;18.30;99.90;;;;;;4979010;28;20584;-72
2021/07/21 05:31:18;;;;;;;8.23;7.50;;;18.90;99.90;;;;;;4974833;28;20494;-72
2021/07/21 05:33:45;;;;;;;8.50;7.60;;;19.70;99.90;;;;;;4974132;28;20476;-72
2021/07/21 05:36:12;;;;;;;7.60;7.10;;;20.50;99.90;;;;;;4982404;28;20483;-73
2021/07/21 05:38:39;;;;;;;8.27;7.53;;;20.90;99.90;;;;;;4986053;28;20463;-72
2021/07/21 05:41:06;;;;;;;9.30;8.33;;;21.10;99.90;;;;;;4993435;28;20475;-72
2021/07/21 05:43:33;;;;;;;9.27;7.40;;;21.10;99.90;;;;;;4979035;28;20459;-72
2021/07/21 05:46:01;;;;;;;10.00;9.20;;;21.10;99.90;;;;;;4980912;28;20465;-72
2021/07/21 05:48:28;;;;;;;8.50;7.80;;;21.50;99.90;;;;;;4984184;28;20205;-72
2021/07/21 05:50:55;;;;;;;9.57;8.80;;;21.80;99.90;;;;;;4978772;28;20869;-71
2021/07/21 05:53:21;;;;;;;10.40;7.70;;;21.80;99.90;;;;;;4993784;28;20938;-72
2021/07/21 05:55:48;;;;;;;10.83;9.37;;;21.80;99.90;;;;;;4989986;28;20487;-72
2021/07/21 05:58:15;;;;;;;9.70;8.90;;;21.70;99.90;;;;;;4974741;28;20464;-72
2021/07/21 06:00:42;;;;;;;10.30;9.33;;;21.50;99.90;;;;;;4988382;28;20506;-72
2021/07/21 06:03:10;;;;;;;11.07;8.20;;;21.20;99.90;;;;;;4993319;28;20478;-72
2021/07/21 06:05:38;;;;;;;9.30;8.47;;;21.00;99.90;;;;;;4997846;28;20977;-73
2021/07/21 06:08:05;;;;;;;9.30;8.40;;;20.90;99.90;;;;;;4992335;28;20468;-72
2021/07/21 06:10:32;;;;;;;8.20;7.60;;;20.80;99.90;;;;;;4972877;28;20554;-72
2021/07/21 06:12:59;;;;;;;8.10;7.40;;;20.70;99.90;;;;;;4974093;28;20480;-73
2021/07/21 06:15:28;;;;;;;9.53;8.70;;;20.70;99.90;;;;;;4978521;28;20483;-72
2021/07/21 06:17:55;;;;;;;8.97;8.23;;;20.50;99.90;;;;;;4976931;28;20455;-71
2021/07/21 06:20:23;;;;;;;10.70;9.70;;;20.30;99.90;;;;;;4995481;28;20470;-71
2021/07/21 06:22:50;;;;;;;12.67;11.07;;;20.30;99.90;;;;;;4976220;28;20832;-71
2021/07/21 06:25:17;;;;;;;9.97;9.00;;;20.20;99.90;;;;;;4996137;28;20459;-73
2021/07/21 06:27:43;;;;;;;8.67;7.87;;;20.20;99.90;;;;;;4992241;28;20551;-71
2021/07/21 06:30:11;;;;;;;10.50;9.47;;;20.30;99.90;;;;;;4994546;28;20462;-71
2021/07/21 06:32:39;;;;;;;9.17;8.37;;;20.20;99.90;;;;;;4992628;28;20471;-72
2021/07/21 06:35:07;;;;;;;9.80;8.80;;;20.10;99.90;;;;;;4976322;28;20491;-71
2021/07/21 06:37:35;;;;;;;10.50;9.40;;;20.10;99.90;;;;;;4981673;28;20489;-73
2021/07/21 06:40:03;;;;;;;10.27;9.07;;;20.10;99.90;;;;;;4977888;28;20475;-73
2021/07/21 06:42:30;;;;;;;10.87;9.77;;;20.00;99.90;;;;;;4985351;28;20479;-71
2021/07/21 06:44:57;;;;;;;13.13;10.07;;;20.00;99.90;;;;;;4998093;28;20466;-72
2021/07/21 06:47:23;;;;;;;12.93;9.20;;;19.90;99.90;;;;;;4989904;28;20471;-71
2021/07/21 06:49:51;;;;;;;10.17;9.23;;;19.90;99.90;;;;;;4983826;28;20479;-72
2021/07/21 06:52:19;;;;;;;13.53;10.30;;;19.90;99.90;;;;;;4976122;28;20820;-71
2021/07/21 06:54:47;;;;;;;12.23;9.50;;;19.90;99.90;;;;;;4975500;28;20496;-71
2021/07/21 06:57:14;;;;;;;9.60;8.33;;;20.00;99.90;;;;;;4981159;28;20476;-70
2021/07/21 06:59:40;;;;;;;8.87;7.97;;;19.90;99.90;;;;;;4988148;28;20460;-71
2021/07/21 07:02:07;;;;;;;11.47;9.57;;;19.90;99.90;;;;;;4976051;28;20554;-70
2021/07/21 07:04:35;;;;;;;9.37;8.53;;;19.90;99.90;;;;;;4988498;28;20459;-70
2021/07/21 07:07:01;;;;;;;12.03;9.50;;;20.00;99.90;;;;;;4992413;28;20472;-71
2021/07/21 07:09:28;;;;;;;10.03;8.73;;;20.00;99.90;;;;;;4983803;28;20463;-71
2021/07/21 07:11:56;;;;;;;10.40;8.90;;;20.00;99.90;;;;;;4983933;28;20503;-73
2021/07/21 07:14:23;;;;;;;9.93;8.97;;;20.10;99.90;;;;;;4977186;28;20848;-72
2021/07/21 07:16:50;;;;;;;10.40;9.03;;;20.00;99.90;;;;;;4994417;28;20490;-72
2021/07/21 07:19:17;;;;;;;10.33;8.87;;;20.00;99.90;;;;;;4981030;28;20955;-72
2021/07/21 07:21:44;;;;;;;11.90;9.10;;;20.00;99.90;;;;;;4989565;28;20859;-72
2021/07/21 07:24:11;;;;;;;10.87;7.77;;;20.00;99.90;;;;;;4992084;28;20459;-72
2021/07/21 07:26:38;;;;;;;10.07;8.97;;;20.00;99.90;;;;;;4992087;28;20459;-72
2021/07/21 07:29:06;;;;;;;8.40;7.70;;;20.00;99.90;;;;;;4983407;28;20463;-72
2021/07/21 07:31:33;;;;;;;8.20;7.50;;;19.90;99.90;;;;;;4982950;28;20498;-71
2021/07/21 07:34:00;;;;;;;10.17;9.17;;;20.00;99.90;;;;;;4989951;28;20463;-71
2021/07/21 07:36:26;;;;;;;10.37;8.23;;;20.10;99.90;;;;;;4986463;28;20480;-71
2021/07/21 07:38:53;;;;;;;8.77;7.70;;;20.10;99.90;;;;;;4974513;28;20471;-71
2021/07/21 07:41:21;;;;;;;8.73;7.90;;;20.10;99.90;;;;;;4974086;28;20492;-71
2021/07/21 07:43:48;;;;;;;7.63;6.93;;;20.10;99.90;;;;;;4992215;28;20505;-71
2021/07/21 07:46:16;;;;;;;10.93;7.63;;;20.00;99.90;;;;;;4980569;28;20459;-71
2021/07/21 07:48:43;;;;;;;8.80;7.67;;;20.00;99.90;;;;;;4978527;28;20471;-71
2021/07/21 07:51:10;;;;;;;9.57;7.80;;;20.00;99.90;;;;;;4978519;28;20492;-71
2021/07/21 07:53:38;;;;;;;8.33;7.63;;;19.90;99.90;;;;;;4992226;28;20481;-72
2021/07/21 07:56:05;;;;;;;9.57;8.57;;;19.80;99.90;;;;;;4994268;28;20490;-70
2021/07/21 07:58:31;;;;;;;8.67;7.80;;;19.80;99.90;;;;;;4989687;28;20468;-69
2021/07/21 08:00:58;;;;;;;8.20;7.40;;;19.70;99.90;;;;;;4992406;28;20505;-70
2021/07/21 08:03:26;;;;;;;9.10;8.00;;;19.70;99.90;;;;;;4991228;28;20533;-70
2021/07/21 08:05:56;;;;;;;9.07;7.40;;;19.80;99.90;;;;;;5004321;28;20459;-73
2021/07/21 08:08:23;;;;;;;7.43;6.73;;;19.90;99.90;;;;;;5001614;28;20471;-72
2021/07/21 08:10:50;;;;;;;9.20;8.27;;;20.00;99.90;;;;;;5005094;28;20569;-72
2021/07/21 08:13:19;;;;;;;7.27;6.67;;;20.10;99.90;;;;;;4990949;28;20955;-72
2021/07/21 08:15:46;;;;;;;7.67;7.00;;;20.20;99.90;;;;;;4975164;28;20570;-71
2021/07/21 08:18:13;;;;;;;8.90;7.30;;;20.40;99.90;;;;;;4974337;28;20464;-70
2021/07/21 08:20:41;;;;;;;6.77;6.27;;;20.60;99.90;;;;;;4976760;28;20492;-70
2021/07/21 08:23:08;;;;;;;9.67;6.80;;;20.70;99.90;;;;;;4987331;28;20470;-70
2021/07/21 08:25:35;;;;;;;7.60;6.47;;;21.20;99.90;;;;;;4993595;28;20787;-70
2021/07/21 08:28:02;;;;;;;7.40;6.50;;;21.60;99.90;;;;;;4993329;28;20467;-70
2021/07/21 08:30:29;;;;;;;7.50;6.83;;;21.90;99.90;;;;;;4992829;28;20495;-70
2021/07/21 08:32:59;;;;;;;8.10;7.43;;;22.10;99.90;;;;;;4982847;28;20524;-71
2021/07/21 08:35:29;;;;;;;7.27;6.67;;;21.90;99.90;;;;;;4974032;28;20480;-70
2021/07/21 08:37:57;;;;;;;7.67;6.87;;;21.80;99.90;;;;;;4973848;28;20467;-71
2021/07/21 08:40:26;;;;;;;7.33;6.63;;;21.60;99.90;;;;;;4973003;28;20463;-71
2021/07/21 08:42:53;;;;;;;8.30;7.57;;;21.50;99.90;;;;;;4982416;28;20471;-71
2021/07/21 08:45:20;;;;;;;8.83;8.10;;;21.30;99.90;;;;;;4990253;28;20458;-71
2021/07/21 08:47:47;;;;;;;8.00;7.30;;;21.30;99.90;;;;;;4972594;28;20468;-71
2021/07/21 08:50:15;;;;;;;9.70;7.37;;;21.30;99.90;;;;;;4982749;28;20536;-71
2021/07/21 08:52:42;;;;;;;8.20;7.60;;;21.50;99.90;;;;;;4973085;28;20471;-70
2021/07/21 08:55:13;;;;;;;10.10;7.80;;;21.60;99.90;;;;;;4986562;28;20465;-71
2021/07/21 08:57:40;;;;;;;8.10;7.40;;;21.70;99.90;;;;;;4982403;28;20833;-69
2021/07/21 09:00:09;;;;;;;7.60;6.90;;;21.60;99.90;;;;;;4974598;28;20476;-71
2021/07/21 09:02:37;;;;;;;8.33;7.60;;;21.40;99.90;;;;;;4992028;28;20482;-70
2021/07/21 09:05:05;;;;;;;8.47;7.70;;;21.20;99.90;;;;;;4992662;28;20626;-70
2021/07/21 09:07:32;;;;;;;10.87;9.13;;;21.10;99.90;;;;;;4993238;28;20470;-70
2021/07/21 09:09:58;;;;;;;7.50;6.90;;;21.10;99.90;;;;;;4992571;28;20513;-71
2021/07/21 09:12:26;;;;;;;9.30;8.17;;;21.20;99.90;;;;;;4972925;28;20483;-71
2021/07/21 09:14:53;;;;;;;9.90;7.07;;;21.30;99.90;;;;;;4972634;28;20471;-71
2021/07/21 09:17:22;;;;;;;7.63;7.00;;;21.50;99.90;;;;;;4972278;28;20872;-70
2021/07/21 09:19:50;;;;;;;8.60;7.80;;;21.70;99.90;;;;;;4973297;28;20554;-70
2021/07/21 09:22:19;;;;;;;8.03;7.37;;;21.80;99.90;;;;;;4981116;28;20840;-70
2021/07/21 09:24:47;;;;;;;8.10;7.30;;;22.00;99.90;;;;;;4992868;28;20470;-70
2021/07/21 09:27:14;;;;;;;7.70;7.13;;;22.30;99.90;;;;;;4994014;28;20538;-71
2021/07/21 09:29:42;;;;;;;7.33;6.67;;;22.50;99.90;;;;;;4980305;28;20483;-73
2021/07/21 09:32:09;;;;;;;7.57;6.90;;;22.50;99.90;;;;;;4981571;28;20993;-73
2021/07/21 09:34:36;;;;;;;8.00;7.30;;;22.50;99.90;;;;;;4981051;28;20530;-72
2021/07/21 09:37:06;;;;;;;7.73;7.13;;;22.40;99.90;;;;;;4981205;28;20488;-73
2021/07/21 09:39:34;;;;;;;7.30;6.80;;;22.30;99.90;;;;;;4980695;28;20467;-73
2021/07/21 09:42:02;;;;;;;7.50;6.80;;;22.30;99.90;;;;;;4981637;28;21027;-72
2021/07/21 09:44:36;;;;;;;10.33;7.50;;;22.30;99.90;;;;;;4982717;28;20463;-72
2021/07/21 09:47:15;;;;;;;6.97;6.10;;;22.10;99.90;;;;;;4982151;28;20460;-72
2021/07/21 09:49:43;;;;;;;8.47;7.40;;;22.00;99.90;;;;;;4981115;28;20471;-72
2021/07/21 09:52:20;;;;;;;9.03;7.77;;;21.80;99.90;;;;;;5000471;28;20494;-72
2021/07/21 09:55:08;;;;;;;6.90;6.20;;;21.60;99.90;;;;;;5003216;28;20481;-72
2021/07/21 09:57:36;;;;;;;8.67;7.93;;;21.50;99.90;;;;;;5004418;28;20483;-73
2021/07/21 10:00:21;;;;;;;8.57;7.77;;;21.40;99.90;;;;;;4979493;28;20472;-70
2021/07/21 10:02:51;;;;;;;9.07;7.40;;;21.30;99.90;;;;;;5000424;28;20533;-72
2021/07/21 10:05:18;;;;;;;6.73;6.23;;;21.20;99.90;;;;;;5003436;28;20963;-73
2021/07/21 10:07:50;;;;;;;5.83;5.43;;;21.00;99.90;;;;;;5000824;28;20470;-74
2021/07/21 10:10:20;;;;;;;6.40;5.80;;;20.60;99.90;;;;;;4999240;28;20459;-71
2021/07/21 10:12:59;;;;;;;6.70;6.03;;;20.40;99.90;;;;;;4980466;28;20550;-72
2021/07/21 10:15:26;;;;;;;6.83;6.23;;;20.30;99.90;;;;;;4975809;28;20467;-71
2021/07/21 10:18:10;;;;;;;6.70;6.10;;;20.20;99.90;;;;;;4976595;28;21045;-72
2021/07/21 10:20:38;;;;;;;6.63;6.13;;;20.00;99.90;;;;;;4987745;28;20479;-71
2021/07/21 10:23:07;;;;;;;7.90;7.00;;;19.90;99.90;;;;;;4990220;28;20856;-71
2021/07/21 10:25:34;;;;;;;8.37;6.30;;;19.90;99.90;;;;;;4977525;28;20503;-71
2021/07/21 10:28:01;;;;;;;7.40;6.80;;;19.90;99.90;;;;;;4976109;28;20479;-71
2021/07/21 10:30:30;;;;;;;8.37;6.77;;;19.80;99.90;;;;;;4978817;28;20478;-71
2021/07/21 10:32:57;;;;;;;7.30;6.70;;;20.00;99.90;;;;;;4994711;28;20830;-70
2021/07/21 10:35:27;;;;;;;8.70;6.80;;;20.00;99.90;;;;;;4988090;28;20489;-71
2021/07/21 10:37:54;;;;;;;7.40;6.77;;;20.00;99.90;;;;;;4985711;28;20491;-71
2021/07/21 10:40:21;;;;;;;7.97;7.13;;;20.20;99.90;;;;;;4984766;28;20822;-71
2021/07/21 10:42:51;;;;;;;7.80;7.10;;;20.30;99.90;;;;;;4984690;28;20462;-71
2021/07/21 10:45:19;;;;;;;8.00;7.20;;;20.60;99.90;;;;;;4976409;28;21002;-71
2021/07/21 10:47:47;;;;;;;6.07;5.57;;;20.80;99.90;;;;;;4975943;28;20537;-70
2021/07/21 10:50:38;;;;;;;7.20;6.60;;;21.00;99.90;;;;;;4993262;28;20490;-70
2021/07/21 10:53:33;;;;;;;6.90;6.40;;;21.20;99.90;;;;;;4982178;28;21101;-71
2021/07/21 10:59:18;;;;;;;7.80;7.10;;;21.20;99.90;;;;;;4974042;28;20483;-70
2021/07/21 11:01:47;;;;;;;8.47;7.67;;;21.10;99.90;;;;;;4984023;28;20488;-70
2021/07/21 11:04:13;;;;;;;7.67;6.97;;;21.10;99.90;;;;;;4990408;28;20482;-71
2021/07/21 11:06:43;;;;;;;5.93;5.43;;;20.90;99.90;;;;;;4987332;28;20477;-70
2021/07/21 11:09:22;;;;;;;7.53;6.73;;;21.00;99.90;;;;;;4979532;28;20590;-71
2021/07/21 11:11:52;;;;;;;7.40;6.80;;;21.00;99.90;;;;;;4973720;28;20503;-71
2021/07/21 11:14:21;;;;;;;7.90;7.10;;;20.90;99.90;;;;;;4975494;28;20491;-70
2021/07/21 11:16:50;;;;;;;7.27;6.57;;;20.80;99.90;;;;;;4976139;28;20498;-70
2021/07/21 11:19:34;;;;;;;8.97;7.27;;;20.60;99.90;;;;;;4974574;28;20460;-71
2021/07/21 11:22:06;;;;;;;6.27;5.87;;;20.60;99.90;;;;;;4987330;28;20498;-69
2021/07/21 11:25:16;;;;;;;7.20;6.60;;;20.80;99.90;;;;;;4984253;28;20472;-71
2021/07/21 11:27:49;;;;;;;7.70;7.00;;;20.90;99.90;;;;;;4963684;28;20472;-71
2021/07/21 11:30:41;;;;;;;8.00;6.20;;;20.90;99.90;;;;;;4994977;28;20455;-70
2021/07/21 11:33:43;;;;;;;6.37;5.77;;;21.10;99.90;;;;;;4995606;28;20806;-70
2021/07/21 11:36:10;;;;;;;6.27;5.87;;;21.40;99.90;;;;;;4978449;28;20474;-70
2021/07/21 11:38:50;;;;;;;6.63;6.00;;;21.40;99.90;;;;;;4976814;28;20480;-70
2021/07/21 11:41:49;;;;;;;6.03;5.63;;;21.40;99.90;;;;;;4976748;28;20484;-69
2021/07/21 11:44:27;;;;;;;6.80;6.20;;;21.40;99.90;;;;;;4976451;28;20479;-70
2021/07/21 11:46:55;;;;;;;6.53;5.93;;;21.40;99.90;;;;;;4975750;28;20463;-70
2021/07/21 11:49:23;;;;;;;6.00;5.60;;;21.30;99.90;;;;;;4986463;28;20447;-70
2021/07/21 11:51:51;;;;;;;5.70;5.30;;;21.40;99.90;;;;;;5000968;28;20490;-70
2021/07/21 11:54:23;;;;;;;6.93;6.27;;;21.50;99.90;;;;;;4994303;28;20487;-70
2021/07/21 11:56:50;;;;;;;5.57;5.17;;;21.70;99.90;;;;;;4988237;28;20488;-70
2021/07/21 11:59:26;;;;;;;5.77;5.30;;;21.90;99.90;;;;;;4997316;28;20494;-70
2021/07/21 12:02:06;;;;;;;6.80;6.10;;;22.10;99.90;;;;;;5000639;28;20525;-70
2021/07/21 12:04:33;;;;;;;5.50;5.10;;;22.30;99.90;;;;;;4982800;28;20452;-71
2021/07/21 12:07:00;;;;;;;7.20;6.70;;;22.40;99.90;;;;;;4996614;28;20467;-70
2021/07/21 12:09:29;;;;;;;6.20;5.70;;;22.50;99.90;;;;;;4995548;28;20463;-70
2021/07/21 12:11:57;;;;;;;6.27;5.77;;;22.40;99.90;;;;;;4995367;28;20486;-70
2021/07/21 12:14:24;;;;;;;5.90;5.40;;;22.50;99.90;;;;;;4980806;28;20464;-70
2021/07/21 12:16:53;;;;;;;6.83;6.23;;;22.50;99.90;;;;;;4975526;28;20491;-70
2021/07/21 12:19:26;;;;;;;5.20;4.80;;;22.40;99.90;;;;;;4975468;28;20623;-70
2021/07/21 12:22:07;;;;;;;5.77;5.37;;;22.30;99.90;;;;;;4977087;28;20527;-70
2021/07/21 12:24:38;;;;;;;5.90;5.40;;;22.20;99.90;;;;;;4989617;28;20510;-70
2021/07/21 12:27:05;;;;;;;5.93;5.47;;;22.20;99.90;;;;;;4976328;28;20460;-70
2021/07/21 12:29:32;;;;;;;6.00;5.50;;;22.30;99.90;;;;;;4980051;28;20478;-71
2021/07/21 12:32:07;;;;;;;5.23;4.73;;;22.30;99.90;;;;;;4987417;28;20519;-70
2021/07/21 12:34:34;;;;;;;4.67;4.37;;;22.30;99.90;;;;;;4984929;28;20455;-70
2021/07/21 12:37:01;;;;;;;5.20;4.70;;;22.20;99.90;;;;;;4995272;28;21009;-70
2021/07/21 12:39:29;;;;;;;5.43;4.80;;;22.10;99.90;;;;;;4987717;28;20471;-70
2021/07/21 12:42:08;;;;;;;5.40;4.90;;;22.00;99.90;;;;;;4982123;28;20529;-70
2021/07/21 12:44:42;;;;;;;7.20;6.00;;;21.80;99.90;;;;;;4978908;28;20468;-72
2021/07/21 12:47:19;;;;;;;4.53;4.20;;;21.70;99.90;;;;;;4974819;28;20424;-70
2021/07/21 12:49:48;;;;;;;5.50;5.00;;;21.70;99.90;;;;;;4974597;28;20459;-71
2021/07/21 12:52:18;;;;;;;5.43;5.03;;;21.80;99.90;;;;;;4975032;28;20940;-71
2021/07/21 12:54:49;;;;;;;5.30;5.00;;;21.70;99.90;;;;;;4974257;28;20530;-71
2021/07/21 12:57:32;;;;;;;5.33;4.93;;;21.60;99.90;;;;;;4974886;28;20988;-71
2021/07/21 13:00:03;;;;;;;5.83;5.33;;;21.50;99.90;;;;;;4974132;28;20479;-70
2021/07/21 13:02:30;;;;;;;6.70;6.10;;;21.50;99.90;;;;;;4982510;28;20491;-71
2021/07/21 13:04:57;;;;;;;6.53;4.93;;;21.50;99.90;;;;;;4985328;28;20459;-71
2021/07/21 13:07:24;;;;;;;5.70;5.20;;;21.40;99.90;;;;;;4983386;28;20472;-71
2021/07/21 13:09:51;;;;;;;6.10;5.70;;;21.40;99.90;;;;;;4982432;28;20463;-71
2021/07/21 13:12:20;;;;;;;5.30;5.00;;;21.40;99.90;;;;;;4986380;28;20522;-71
2021/07/21 13:14:56;;;;;;;5.27;4.87;;;21.40;99.90;;;;;;4987159;28;20463;-71
2021/07/21 13:17:27;;;;;;;4.67;4.37;;;21.50;99.90;;;;;;4987294;28;20475;-72
2021/07/21 13:20:06;;;;;;;5.30;4.90;;;21.40;99.90;;;;;;4982483;28;20956;-72
2021/07/21 13:22:32;;;;;;;4.93;4.60;;;21.50;99.90;;;;;;4973589;28;20916;-72
2021/07/21 13:25:10;;;;;;;4.73;4.43;;;21.50;99.90;;;;;;4972779;28;20968;-72
2021/07/21 13:27:38;;;;;;;4.70;4.40;;;21.50;99.90;;;;;;4975248;28;20536;-72
2021/07/21 13:30:22;;;;;;;4.23;3.90;;;21.60;99.90;;;;;;4977023;28;20471;-72
2021/07/21 13:32:49;;;;;;;4.57;4.27;;;21.80;99.90;;;;;;4976171;28;20483;-72
2021/07/21 13:35:15;;;;;;;4.97;4.60;;;22.00;99.90;;;;;;4976956;28;20467;-71
2021/07/21 13:37:42;;;;;;;4.53;4.33;;;22.30;99.90;;;;;;4976703;28;20491;-71
2021/07/21 13:40:11;;;;;;;4.40;4.20;;;22.60;99.90;;;;;;4976362;28;20479;-70
2021/07/21 13:42:39;;;;;;;5.33;4.93;;;22.80;99.90;;;;;;4976481;28;20514;-70
2021/07/21 13:45:09;;;;;;;4.80;4.50;;;22.80;99.90;;;;;;4976031;28;20530;-70
2021/07/21 13:47:39;;;;;;;4.40;4.20;;;23.00;99.90;;;;;;4976021;28;21069;-71
2021/07/21 13:50:08;;;;;;;4.17;3.97;;;23.20;99.90;;;;;;4983062;28;20551;-74
2021/07/21 13:52:36;;;;;;;4.50;4.20;;;23.20;99.90;;;;;;4984151;28;20486;-74
2021/07/21 13:55:04;;;;;;;5.57;5.17;;;23.20;99.90;;;;;;4983106;28;20463;-73
2021/07/21 13:57:31;;;;;;;4.30;4.00;;;23.20;99.90;;;;;;4980575;28;20487;-72
2021/07/21 14:00:00;;;;;;;4.60;4.30;;;23.20;99.90;;;;;;4976805;28;20459;-70
2021/07/21 14:02:30;;;;;;;4.67;4.37;;;23.20;99.90;;;;;;4977836;28;20546;-71
2021/07/21 14:04:56;;;;;;;4.73;4.43;;;23.20;99.90;;;;;;4978886;28;20479;-71
2021/07/21 14:07:23;;;;;;;4.17;3.97;;;23.30;99.90;;;;;;4980936;28;20471;-71
2021/07/21 14:09:50;;;;;;;4.70;4.47;;;23.20;99.90;;;;;;4983440;28;20474;-71
2021/07/21 14:12:17;;;;;;;4.70;4.30;;;23.20;99.90;;;;;;4982043;28;20494;-72
2021/07/21 14:14:44;;;;;;;5.03;4.63;;;23.30;99.90;;;;;;4981850;28;20464;-71
2021/07/21 14:17:12;;;;;;;5.47;4.97;;;23.40;99.90;;;;;;4985063;28;20976;-72
2021/07/21 14:19:38;;;;;;;4.13;3.93;;;23.40;99.90;;;;;;4980768;28;20467;-71
2021/07/21 14:22:05;;;;;;;5.57;5.17;;;23.50;99.90;;;;;;4975159;28;20479;-71
2021/07/21 14:24:32;;;;;;;5.00;4.70;;;23.60;99.90;;;;;;4975753;28;20807;-71
2021/07/21 14:26:59;;;;;;;5.87;5.37;;;23.70;99.90;;;;;;4976093;28;20483;-70
2021/07/21 14:29:27;;;;;;;7.00;6.40;;;23.70;99.90;;;;;;4975826;28;20993;-71
2021/07/21 14:31:54;;;;;;;5.20;4.90;;;23.70;99.90;;;;;;4980146;28;20506;-70
2021/07/21 14:34:22;;;;;;;5.07;4.77;;;23.70;99.90;;;;;;4994817;28;20557;-70
2021/07/21 14:36:49;;;;;;;5.20;4.90;;;23.70;99.90;;;;;;4996015;28;20493;-72
2021/07/21 14:39:17;;;;;;;4.67;4.37;;;23.60;99.90;;;;;;4979298;28;20578;-72
2021/07/21 14:41:46;;;;;;;4.40;4.20;;;23.50;99.90;;;;;;4978996;28;20998;-72
2021/07/21 14:44:13;;;;;;;5.20;4.90;;;23.40;99.90;;;;;;4988469;28;20466;-71
2021/07/21 14:46:40;;;;;;;5.93;5.03;;;23.20;99.90;;;;;;4976858;28;20467;-71
2021/07/21 14:49:08;;;;;;;5.27;4.87;;;23.10;99.90;;;;;;4975892;28;20468;-73
2021/07/21 14:51:36;;;;;;;5.00;4.70;;;23.20;99.90;;;;;;4977033;28;20484;-71
2021/07/21 14:54:03;;;;;;;5.07;4.67;;;23.20;99.90;;;;;;4994292;28;20950;-72
2021/07/21 14:56:29;;;;;;;4.73;4.43;;;23.30;99.90;;;;;;4994679;28;20467;-72
2021/07/21 14:58:56;;;;;;;7.30;4.70;;;23.30;99.90;;;;;;4994625;28;20487;-72
2021/07/21 15:01:23;;;;;;;4.77;4.40;;;23.20;99.90;;;;;;4994114;28;20525;-71
2021/07/21 15:03:49;;;;;;;5.07;4.73;;;23.10;99.90;;;;;;4974853;28;20479;-71
2021/07/21 15:06:16;;;;;;;5.63;5.23;;;22.90;99.90;;;;;;4974957;28;20803;-70
2021/07/21 15:08:44;;;;;;;5.30;4.90;;;22.80;99.90;;;;;;4978820;28;20471;-72
2021/07/21 15:11:11;;;;;;;9.00;4.70;;;22.80;99.90;;;;;;4984185;28;20496;-73
2021/07/21 15:13:38;;;;;;;4.97;4.57;;;22.70;99.90;;;;;;5001254;28;20463;-72
2021/07/21 15:16:05;;;;;;;4.70;4.40;;;22.60;99.90;;;;;;5003189;28;20513;-73
2021/07/21 15:18:32;;;;;;;4.70;4.30;;;22.50;99.90;;;;;;5005301;28;20495;-73
2021/07/21 15:20:59;;;;;;;4.60;4.27;;;22.40;99.90;;;;;;5002903;28;20482;-72
2021/07/21 15:23:25;;;;;;;5.17;4.80;;;22.30;99.90;;;;;;4989142;28;20472;-73
2021/07/21 15:25:55;;;;;;;5.20;4.43;;;22.30;99.90;;;;;;5002387;28;20487;-73
2021/07/21 15:28:21;;;;;;;6.40;5.77;;;22.30;99.90;;;;;;4999147;28;20466;-73
2021/07/21 15:30:48;;;;;;;6.37;5.77;;;22.20;99.90;;;;;;5008720;28;20483;-73
2021/07/21 15:33:15;;;;;;;5.63;5.10;;;22.10;99.90;;;;;;4995216;28;20530;-74
2021/07/21 15:35:42;;;;;;;6.37;5.77;;;22.10;99.90;;;;;;4990099;28;20456;-73
2021/07/21 15:38:08;;;;;;;5.50;5.10;;;22.10;99.90;;;;;;4988895;28;20498;-72
2021/07/21 15:40:35;;;;;;;5.47;5.07;;;22.10;99.90;;;;;;4987741;28;20487;-73
2021/07/21 15:43:03;;;;;;;5.63;5.33;;;22.20;99.90;;;;;;5000529;28;20467;-72
2021/07/21 15:45:30;;;;;;;5.57;5.17;;;22.30;99.90;;;;;;5008535;28;20510;-72
2021/07/21 15:47:57;;;;;;;5.20;4.83;;;22.50;99.90;;;;;;4997457;28;20459;-73
2021/07/21 15:50:23;;;;;;;5.87;5.20;;;22.60;99.90;;;;;;5001693;28;20562;-73
2021/07/21 15:52:52;;;;;;;4.83;4.43;;;22.70;99.90;;;;;;4991586;28;20475;-73
2021/07/21 15:55:19;;;;;;;5.00;4.70;;;22.60;99.90;;;;;;4983484;28;20862;-71
2021/07/21 15:57:46;;;;;;;5.17;4.77;;;22.40;99.90;;;;;;4981438;28;20523;-73
2021/07/21 16:00:18;;;;;;;4.20;3.90;;;22.40;99.90;;;;;;4979863;28;20480;-73
2021/07/21 16:02:45;;;;;;;5.60;5.10;;;22.30;99.90;;;;;;4986581;28;20540;-72
2021/07/21 16:05:14;;;;;;;4.17;3.97;;;22.20;99.90;;;;;;4993985;28;20469;-74
2021/07/21 16:07:41;;;;;;;5.07;4.57;;;22.10;99.90;;;;;;4993831;28;20455;-72
2021/07/21 16:10:10;;;;;;;5.10;4.80;;;22.10;99.90;;;;;;4974685;28;20519;-73
2021/07/21 16:12:37;;;;;;;10.63;5.10;;;22.00;99.90;;;;;;4981678;28;20455;-71
2021/07/21 16:15:07;;;;;;;4.80;4.40;;;22.00;99.90;;;;;;4986476;28;20456;-72
2021/07/21 16:17:35;;;;;;;14.50;12.17;;;22.10;99.90;;;;;;4972566;28;20474;-71
2021/07/21 16:20:03;;;;;;;5.80;5.30;;;22.30;99.90;;;;;;4973783;28;20464;-71
2021/07/21 16:22:30;;;;;;;4.80;4.50;;;22.60;99.90;;;;;;4973204;28;20935;-71
2021/07/21 16:24:57;;;;;;;5.43;4.90;;;22.80;99.90;;;;;;4973845;28;20468;-71
2021/07/21 16:27:24;;;;;;;5.70;5.20;;;22.90;99.90;;;;;;4973693;28;20936;-71
2021/07/21 16:29:51;;;;;;;5.93;4.83;;;23.10;99.90;;;;;;4974076;28;20483;-71
2021/07/21 16:32:17;;;;;;;4.67;4.47;;;23.20;99.90;;;;;;4974470;28;20499;-73
2021/07/21 16:34:45;;;;;;;5.50;5.10;;;23.20;99.90;;;;;;4979476;28;20475;-73
2021/07/21 16:37:12;;;;;;;5.20;4.90;;;23.10;99.90;;;;;;4979076;28;20472;-72
2021/07/21 16:39:39;;;;;;;5.37;4.97;;;23.00;99.90;;;;;;4981258;28;20491;-71
2021/07/21 16:42:06;;;;;;;5.73;5.33;;;23.10;99.90;;;;;;4976209;28;20499;-72
2021/07/21 16:44:33;;;;;;;5.53;5.03;;;23.10;99.90;;;;;;4982883;28;20487;-72
2021/07/21 16:47:00;;;;;;;4.80;4.50;;;23.20;99.90;;;;;;4974211;28;20471;-71
2021/07/21 16:49:26;;;;;;;5.40;5.00;;;23.30;99.90;;;;;;4973631;28;20479;-71
2021/07/21 16:51:54;;;;;;;6.43;5.93;;;23.40;99.90;;;;;;4973669;28;20476;-70
2021/07/21 16:54:21;;;;;;;4.90;4.50;;;23.40;99.90;;;;;;4978491;28;20467;-72
2021/07/21 16:56:48;;;;;;;6.50;6.10;;;23.40;99.90;;;;;;4994519;28;20490;-72
2021/07/21 16:59:15;;;;;;;5.87;5.30;;;23.30;99.90;;;;;;4991662;28;20490;-72